sensor_id;sensor_type;location;lat;lon;timestamp;P1;durP1;ratioP1;P2;durP2;ratioP2
59310;SDS011;45078;51.654;21.250;2023-05-19T00:00:53;6.05;;;3.28;;
59310;SDS011;45078;51.654;21.250;2023-05-19T00:03:21;7.85;;;3.90;;
59310;SDS011;45078;51.654;21.250;2023-05-19T00:05:47;7.90;;;3.35;;
59310;SDS011;45078;51.654;21.250;2023-05-19T00:08:15;5.75;;;3.30;;
59310;SDS011;45078;51.654;21.250;2023-05-19T00:10:42;6.63;;;3.45;;
59310;SDS011;45078;51.654;21.250;2023-05-19T00:13:09;10.27;;;3.65;;
59310;SDS011;45078;51.654;21.250;2023-05-19T00:15:34;5.00;;;3.00;;
59310;SDS011;45078;51.654;21.250;2023-05-19T00:18:01;5.35;;;3.38;;
59310;SDS011;45078;51.654;21.250;2023-05-19T00:20:26;5.38;;;3.63;;
59310;SDS011;45078;51.654;21.250;2023-05-19T00:22:52;8.38;;;3.17;;
59310;SDS011;45078;51.654;21.250;2023-05-19T00:25:18;7.85;;;3.60;;
59310;SDS011;45078;51.654;21.250;2023-05-19T00:27:44;7.78;;;3.75;;
59310;SDS011;45078;51.654;21.250;2023-05-19T00:30:09;5.38;;;2.72;;
59310;SDS011;45078;51.654;21.250;2023-05-19T00:32:35;5.35;;;3.25;;
59310;SDS011;45078;51.654;21.250;2023-05-19T00:35:01;5.60;;;3.35;;
59310;SDS011;45078;51.654;21.250;2023-05-19T00:37:27;6.07;;;3.42;;
59310;SDS011;45078;51.654;21.250;2023-05-19T00:39:53;6.05;;;3.15;;
59310;SDS011;45078;51.654;21.250;2023-05-19T00:42:19;5.60;;;3.20;;
59310;SDS011;45078;51.654;21.250;2023-05-19T00:44:45;5.07;;;2.95;;
59310;SDS011;45078;51.654;21.250;2023-05-19T00:47:11;10.70;;;4.18;;
59310;SDS011;45078;51.654;21.250;2023-05-19T00:49:37;6.80;;;3.05;;
59310;SDS011;45078;51.654;21.250;2023-05-19T00:52:02;9.57;;;3.38;;
59310;SDS011;45078;51.654;21.250;2023-05-19T00:54:31;8.50;;;3.25;;
59310;SDS011;45078;51.654;21.250;2023-05-19T00:56:58;5.13;;;2.90;;
59310;SDS011;45078;51.654;21.250;2023-05-19T00:59:25;5.10;;;2.92;;
59310;SDS011;45078;51.654;21.250;2023-05-19T01:01:51;10.30;;;3.72;;
59310;SDS011;45078;51.654;21.250;2023-05-19T01:04:20;5.82;;;3.05;;
59310;SDS011;45078;51.654;21.250;2023-05-19T01:06:47;5.40;;;2.97;;
59310;SDS011;45078;51.654;21.250;2023-05-19T01:09:14;4.60;;;2.85;;
59310;SDS011;45078;51.654;21.250;2023-05-19T01:11:41;6.75;;;3.17;;
59310;SDS011;45078;51.654;21.250;2023-05-19T01:14:07;5.50;;;2.72;;
59310;SDS011;45078;51.654;21.250;2023-05-19T01:16:34;4.25;;;2.70;;
59310;SDS011;45078;51.654;21.250;2023-05-19T01:32:39;5.75;;;2.70;;
59310;SDS011;45078;51.654;21.250;2023-05-19T01:35:06;4.22;;;2.67;;
59310;SDS011;45078;51.654;21.250;2023-05-19T01:37:37;4.97;;;2.80;;
59310;SDS011;45078;51.654;21.250;2023-05-19T01:40:05;3.83;;;2.25;;
59310;SDS011;45078;51.654;21.250;2023-05-19T01:42:32;3.95;;;2.10;;
59310;SDS011;45078;51.654;21.250;2023-05-19T01:45:02;4.18;;;2.15;;
59310;SDS011;45078;51.654;21.250;2023-05-19T01:47:31;4.28;;;2.10;;
59310;SDS011;45078;51.654;21.250;2023-05-19T01:50:02;6.25;;;2.40;;
59310;SDS011;45078;51.654;21.250;2023-05-19T01:52:28;3.47;;;2.13;;
59310;SDS011;45078;51.654;21.250;2023-05-19T01:54:54;3.47;;;2.15;;
59310;SDS011;45078;51.654;21.250;2023-05-19T01:57:42;3.35;;;2.00;;
59310;SDS011;45078;51.654;21.250;2023-05-19T02:00:34;3.83;;;2.15;;
59310;SDS011;45078;51.654;21.250;2023-05-19T02:03:24;3.30;;;1.90;;
59310;SDS011;45078;51.654;21.250;2023-05-19T02:14:02;3.70;;;2.17;;
59310;SDS011;45078;51.654;21.250;2023-05-19T02:16:58;4.28;;;2.15;;
59310;SDS011;45078;51.654;21.250;2023-05-19T02:19:27;5.32;;;2.28;;
59310;SDS011;45078;51.654;21.250;2023-05-19T02:21:57;2.58;;;1.70;;
59310;SDS011;45078;51.654;21.250;2023-05-19T02:24:23;4.35;;;1.95;;
59310;SDS011;45078;51.654;21.250;2023-05-19T02:26:49;4.25;;;1.90;;
59310;SDS011;45078;51.654;21.250;2023-05-19T02:29:16;4.72;;;2.25;;
59310;SDS011;45078;51.654;21.250;2023-05-19T02:31:43;3.13;;;1.77;;
59310;SDS011;45078;51.654;21.250;2023-05-19T02:34:09;3.25;;;1.80;;
59310;SDS011;45078;51.654;21.250;2023-05-19T02:36:35;3.63;;;1.88;;
59310;SDS011;45078;51.654;21.250;2023-05-19T02:39:02;3.33;;;1.73;;
59310;SDS011;45078;51.654;21.250;2023-05-19T02:41:28;3.95;;;2.15;;
59310;SDS011;45078;51.654;21.250;2023-05-19T02:43:54;3.08;;;2.00;;
59310;SDS011;45078;51.654;21.250;2023-05-19T02:46:20;5.00;;;2.30;;
59310;SDS011;45078;51.654;21.250;2023-05-19T02:48:46;4.80;;;2.17;;
59310;SDS011;45078;51.654;21.250;2023-05-19T02:51:12;3.45;;;1.95;;
59310;SDS011;45078;51.654;21.250;2023-05-19T02:53:38;6.78;;;3.45;;
59310;SDS011;45078;51.654;21.250;2023-05-19T02:56:03;8.23;;;3.20;;
59310;SDS011;45078;51.654;21.250;2023-05-19T02:58:29;8.20;;;4.32;;
59310;SDS011;45078;51.654;21.250;2023-05-19T03:00:55;5.90;;;3.42;;
59310;SDS011;45078;51.654;21.250;2023-05-19T03:03:21;5.65;;;3.30;;
59310;SDS011;45078;51.654;21.250;2023-05-19T03:05:47;6.32;;;2.55;;
59310;SDS011;45078;51.654;21.250;2023-05-19T03:08:13;3.90;;;2.13;;
59310;SDS011;45078;51.654;21.250;2023-05-19T03:10:39;5.30;;;2.78;;
59310;SDS011;45078;51.654;21.250;2023-05-19T03:13:04;3.75;;;2.70;;
59310;SDS011;45078;51.654;21.250;2023-05-19T03:15:30;5.20;;;3.00;;
59310;SDS011;45078;51.654;21.250;2023-05-19T03:17:56;5.95;;;2.20;;
59310;SDS011;45078;51.654;21.250;2023-05-19T03:20:22;5.90;;;2.85;;
59310;SDS011;45078;51.654;21.250;2023-05-19T03:22:48;7.43;;;2.17;;
59310;SDS011;45078;51.654;21.250;2023-05-19T03:25:14;3.38;;;2.10;;
59310;SDS011;45078;51.654;21.250;2023-05-19T03:27:41;4.50;;;2.33;;
59310;SDS011;45078;51.654;21.250;2023-05-19T03:30:07;4.90;;;2.60;;
59310;SDS011;45078;51.654;21.250;2023-05-19T03:32:33;4.25;;;2.53;;
59310;SDS011;45078;51.654;21.250;2023-05-19T03:35:02;4.22;;;2.63;;
59310;SDS011;45078;51.654;21.250;2023-05-19T03:37:29;5.60;;;2.50;;
59310;SDS011;45078;51.654;21.250;2023-05-19T03:39:54;5.82;;;2.58;;
59310;SDS011;45078;51.654;21.250;2023-05-19T03:42:21;4.50;;;2.50;;
59310;SDS011;45078;51.654;21.250;2023-05-19T03:44:47;4.30;;;2.55;;
59310;SDS011;45078;51.654;21.250;2023-05-19T03:47:12;6.80;;;2.33;;
59310;SDS011;45078;51.654;21.250;2023-05-19T03:49:38;4.63;;;2.53;;
59310;SDS011;45078;51.654;21.250;2023-05-19T03:52:04;5.80;;;2.28;;
59310;SDS011;45078;51.654;21.250;2023-05-19T03:54:30;4.53;;;2.28;;
59310;SDS011;45078;51.654;21.250;2023-05-19T03:56:56;4.95;;;2.70;;
59310;SDS011;45078;51.654;21.250;2023-05-19T03:59:22;5.65;;;2.65;;
59310;SDS011;45078;51.654;21.250;2023-05-19T04:01:48;4.72;;;2.53;;
59310;SDS011;45078;51.654;21.250;2023-05-19T04:04:14;6.03;;;2.83;;
59310;SDS011;45078;51.654;21.250;2023-05-19T04:06:40;5.40;;;2.40;;
59310;SDS011;45078;51.654;21.250;2023-05-19T04:09:12;7.47;;;2.80;;
59310;SDS011;45078;51.654;21.250;2023-05-19T04:11:40;3.78;;;2.33;;
59310;SDS011;45078;51.654;21.250;2023-05-19T04:14:07;5.05;;;2.80;;
59310;SDS011;45078;51.654;21.250;2023-05-19T04:16:33;6.28;;;2.80;;
59310;SDS011;45078;51.654;21.250;2023-05-19T04:19:00;10.40;;;2.90;;
59310;SDS011;45078;51.654;21.250;2023-05-19T04:21:25;4.85;;;2.40;;
59310;SDS011;45078;51.654;21.250;2023-05-19T04:23:51;5.22;;;3.20;;
59310;SDS011;45078;51.654;21.250;2023-05-19T04:26:17;5.80;;;3.10;;
59310;SDS011;45078;51.654;21.250;2023-05-19T04:28:45;3.65;;;2.45;;
59310;SDS011;45078;51.654;21.250;2023-05-19T04:31:15;4.20;;;2.53;;
59310;SDS011;45078;51.654;21.250;2023-05-19T04:33:40;6.28;;;3.30;;
59310;SDS011;45078;51.654;21.250;2023-05-19T04:36:07;5.03;;;2.10;;
59310;SDS011;45078;51.654;21.250;2023-05-19T04:38:37;7.18;;;2.30;;
59310;SDS011;45078;51.654;21.250;2023-05-19T04:41:07;3.63;;;1.93;;
59310;SDS011;45078;51.654;21.250;2023-05-19T04:43:38;1.90;;;1.40;;
59310;SDS011;45078;51.654;21.250;2023-05-19T04:46:11;4.63;;;2.45;;
59310;SDS011;45078;51.654;21.250;2023-05-19T04:48:37;3.20;;;1.77;;
59310;SDS011;45078;51.654;21.250;2023-05-19T04:51:06;4.07;;;1.70;;
59310;SDS011;45078;51.654;21.250;2023-05-19T04:53:32;5.57;;;1.77;;
59310;SDS011;45078;51.654;21.250;2023-05-19T04:55:58;3.30;;;1.80;;
59310;SDS011;45078;51.654;21.250;2023-05-19T04:58:26;5.95;;;1.88;;
59310;SDS011;45078;51.654;21.250;2023-05-19T05:00:52;4.85;;;1.75;;
59310;SDS011;45078;51.654;21.250;2023-05-19T05:03:24;2.75;;;1.60;;
59310;SDS011;45078;51.654;21.250;2023-05-19T05:05:50;2.42;;;1.60;;
59310;SDS011;45078;51.654;21.250;2023-05-19T05:08:16;3.10;;;1.73;;
59310;SDS011;45078;51.654;21.250;2023-05-19T05:10:50;1.90;;;1.30;;
59310;SDS011;45078;51.654;21.250;2023-05-19T05:13:17;3.13;;;1.90;;
59310;SDS011;45078;51.654;21.250;2023-05-19T05:15:45;3.80;;;1.90;;
59310;SDS011;45078;51.654;21.250;2023-05-19T05:18:11;4.47;;;2.00;;
59310;SDS011;45078;51.654;21.250;2023-05-19T05:20:39;2.05;;;1.20;;
59310;SDS011;45078;51.654;21.250;2023-05-19T05:23:09;6.93;;;1.75;;
59310;SDS011;45078;51.654;21.250;2023-05-19T05:25:42;3.28;;;1.63;;
59310;SDS011;45078;51.654;21.250;2023-05-19T05:28:08;3.65;;;1.80;;
59310;SDS011;45078;51.654;21.250;2023-05-19T05:30:34;4.13;;;1.60;;
59310;SDS011;45078;51.654;21.250;2023-05-19T05:33:01;5.05;;;1.60;;
59310;SDS011;45078;51.654;21.250;2023-05-19T05:35:27;4.70;;;1.67;;
59310;SDS011;45078;51.654;21.250;2023-05-19T05:37:53;4.53;;;1.88;;
59310;SDS011;45078;51.654;21.250;2023-05-19T05:40:19;4.20;;;2.13;;
59310;SDS011;45078;51.654;21.250;2023-05-19T05:42:45;2.00;;;1.33;;
59310;SDS011;45078;51.654;21.250;2023-05-19T05:45:11;2.83;;;1.60;;
59310;SDS011;45078;51.654;21.250;2023-05-19T05:47:37;6.45;;;1.95;;
59310;SDS011;45078;51.654;21.250;2023-05-19T05:50:07;2.35;;;1.67;;
59310;SDS011;45078;51.654;21.250;2023-05-19T05:52:35;3.50;;;1.60;;
59310;SDS011;45078;51.654;21.250;2023-05-19T05:55:02;2.97;;;1.45;;
59310;SDS011;45078;51.654;21.250;2023-05-19T05:57:28;4.45;;;1.70;;
59310;SDS011;45078;51.654;21.250;2023-05-19T05:59:59;3.80;;;1.48;;
59310;SDS011;45078;51.654;21.250;2023-05-19T06:02:25;4.38;;;1.80;;
59310;SDS011;45078;51.654;21.250;2023-05-19T06:04:52;2.67;;;1.58;;
59310;SDS011;45078;51.654;21.250;2023-05-19T06:07:18;3.83;;;1.50;;
59310;SDS011;45078;51.654;21.250;2023-05-19T06:09:45;3.88;;;1.90;;
59310;SDS011;45078;51.654;21.250;2023-05-19T06:12:13;2.75;;;1.60;;
59310;SDS011;45078;51.654;21.250;2023-05-19T06:14:39;4.05;;;1.67;;
59310;SDS011;45078;51.654;21.250;2023-05-19T06:17:05;5.63;;;1.52;;
59310;SDS011;45078;51.654;21.250;2023-05-19T06:19:31;6.78;;;1.75;;
59310;SDS011;45078;51.654;21.250;2023-05-19T06:21:56;3.85;;;1.80;;
59310;SDS011;45078;51.654;21.250;2023-05-19T06:24:22;4.40;;;1.77;;
59310;SDS011;45078;51.654;21.250;2023-05-19T06:26:48;7.15;;;1.48;;
59310;SDS011;45078;51.654;21.250;2023-05-19T06:29:13;5.90;;;1.55;;
59310;SDS011;45078;51.654;21.250;2023-05-19T06:31:39;4.70;;;1.92;;
59310;SDS011;45078;51.654;21.250;2023-05-19T06:34:05;4.45;;;1.50;;
59310;SDS011;45078;51.654;21.250;2023-05-19T06:36:31;4.57;;;1.60;;
59310;SDS011;45078;51.654;21.250;2023-05-19T06:38:57;3.47;;;1.67;;
59310;SDS011;45078;51.654;21.250;2023-05-19T06:41:22;5.32;;;1.92;;
59310;SDS011;45078;51.654;21.250;2023-05-19T06:43:48;5.15;;;2.03;;
59310;SDS011;45078;51.654;21.250;2023-05-19T06:46:14;4.15;;;1.70;;
59310;SDS011;45078;51.654;21.250;2023-05-19T06:48:41;3.88;;;1.70;;
59310;SDS011;45078;51.654;21.250;2023-05-19T06:51:07;3.47;;;1.80;;
59310;SDS011;45078;51.654;21.250;2023-05-19T06:53:34;3.75;;;1.50;;
59310;SDS011;45078;51.654;21.250;2023-05-19T06:56:00;3.63;;;1.80;;
59310;SDS011;45078;51.654;21.250;2023-05-19T06:58:25;3.50;;;1.92;;
59310;SDS011;45078;51.654;21.250;2023-05-19T07:00:51;6.72;;;2.42;;
59310;SDS011;45078;51.654;21.250;2023-05-19T07:03:17;4.10;;;2.08;;
59310;SDS011;45078;51.654;21.250;2023-05-19T07:05:43;5.60;;;2.28;;
59310;SDS011;45078;51.654;21.250;2023-05-19T07:08:09;3.08;;;1.70;;
59310;SDS011;45078;51.654;21.250;2023-05-19T07:10:34;5.32;;;1.90;;
59310;SDS011;45078;51.654;21.250;2023-05-19T07:13:00;2.97;;;1.70;;
59310;SDS011;45078;51.654;21.250;2023-05-19T07:15:26;3.90;;;1.92;;
59310;SDS011;45078;51.654;21.250;2023-05-19T07:17:52;7.07;;;1.80;;
59310;SDS011;45078;51.654;21.250;2023-05-19T07:20:17;6.55;;;2.10;;
59310;SDS011;45078;51.654;21.250;2023-05-19T07:22:43;3.80;;;1.90;;
59310;SDS011;45078;51.654;21.250;2023-05-19T07:25:09;4.93;;;2.17;;
59310;SDS011;45078;51.654;21.250;2023-05-19T07:27:34;4.28;;;1.95;;
59310;SDS011;45078;51.654;21.250;2023-05-19T07:30:01;3.47;;;1.95;;
59310;SDS011;45078;51.654;21.250;2023-05-19T07:32:28;4.63;;;1.95;;
59310;SDS011;45078;51.654;21.250;2023-05-19T07:34:53;6.97;;;2.15;;
59310;SDS011;45078;51.654;21.250;2023-05-19T07:37:19;6.22;;;2.20;;
59310;SDS011;45078;51.654;21.250;2023-05-19T07:39:45;7.13;;;2.70;;
59310;SDS011;45078;51.654;21.250;2023-05-19T07:42:11;6.72;;;3.00;;
59310;SDS011;45078;51.654;21.250;2023-05-19T07:44:36;7.25;;;2.45;;
59310;SDS011;45078;51.654;21.250;2023-05-19T07:47:02;10.07;;;2.47;;
59310;SDS011;45078;51.654;21.250;2023-05-19T07:49:28;8.70;;;2.50;;
59310;SDS011;45078;51.654;21.250;2023-05-19T07:51:54;13.63;;;3.03;;
59310;SDS011;45078;51.654;21.250;2023-05-19T07:54:19;9.93;;;2.90;;
59310;SDS011;45078;51.654;21.250;2023-05-19T07:56:45;12.45;;;3.15;;
59310;SDS011;45078;51.654;21.250;2023-05-19T07:59:15;9.63;;;3.20;;
59310;SDS011;45078;51.654;21.250;2023-05-19T08:01:41;11.68;;;3.55;;
59310;SDS011;45078;51.654;21.250;2023-05-19T08:04:06;11.32;;;3.65;;
59310;SDS011;45078;51.654;21.250;2023-05-19T08:06:32;9.43;;;3.20;;
59310;SDS011;45078;51.654;21.250;2023-05-19T08:08:59;9.55;;;3.35;;
59310;SDS011;45078;51.654;21.250;2023-05-19T08:11:25;13.32;;;3.30;;
59310;SDS011;45078;51.654;21.250;2023-05-19T08:13:50;10.80;;;3.08;;
59310;SDS011;45078;51.654;21.250;2023-05-19T08:16:16;13.27;;;3.75;;
59310;SDS011;45078;51.654;21.250;2023-05-19T08:18:42;17.65;;;3.67;;
59310;SDS011;45078;51.654;21.250;2023-05-19T08:21:08;7.65;;;3.05;;
59310;SDS011;45078;51.654;21.250;2023-05-19T08:23:34;15.13;;;3.65;;
59310;SDS011;45078;51.654;21.250;2023-05-19T08:26:01;13.00;;;4.00;;
59310;SDS011;45078;51.654;21.250;2023-05-19T08:28:27;9.45;;;3.55;;
59310;SDS011;45078;51.654;21.250;2023-05-19T08:30:53;8.93;;;3.17;;
59310;SDS011;45078;51.654;21.250;2023-05-19T08:33:18;11.93;;;3.53;;
59310;SDS011;45078;51.654;21.250;2023-05-19T08:35:45;9.60;;;3.47;;
59310;SDS011;45078;51.654;21.250;2023-05-19T08:38:11;15.07;;;4.22;;
59310;SDS011;45078;51.654;21.250;2023-05-19T08:40:39;10.82;;;4.32;;
59310;SDS011;45078;51.654;21.250;2023-05-19T08:43:06;13.43;;;3.95;;
59310;SDS011;45078;51.654;21.250;2023-05-19T08:45:32;8.38;;;3.30;;
59310;SDS011;45078;51.654;21.250;2023-05-19T08:47:58;13.43;;;4.25;;
59310;SDS011;45078;51.654;21.250;2023-05-19T08:50:28;10.68;;;3.88;;
59310;SDS011;45078;51.654;21.250;2023-05-19T08:52:59;8.68;;;3.00;;
59310;SDS011;45078;51.654;21.250;2023-05-19T09:00:52;11.10;;;3.65;;
59310;SDS011;45078;51.654;21.250;2023-05-19T09:03:20;13.55;;;4.00;;
59310;SDS011;45078;51.654;21.250;2023-05-19T09:05:47;11.57;;;3.78;;
59310;SDS011;45078;51.654;21.250;2023-05-19T09:08:13;9.93;;;3.58;;
59310;SDS011;45078;51.654;21.250;2023-05-19T09:10:38;14.95;;;3.45;;
59310;SDS011;45078;51.654;21.250;2023-05-19T09:13:04;11.98;;;3.50;;
59310;SDS011;45078;51.654;21.250;2023-05-19T09:15:30;10.32;;;3.85;;
59310;SDS011;45078;51.654;21.250;2023-05-19T09:18:10;11.40;;;4.50;;
59310;SDS011;45078;51.654;21.250;2023-05-19T09:20:41;13.98;;;4.50;;
59310;SDS011;45078;51.654;21.250;2023-05-19T09:23:12;11.82;;;4.63;;
59310;SDS011;45078;51.654;21.250;2023-05-19T09:25:52;12.43;;;5.07;;
59310;SDS011;45078;51.654;21.250;2023-05-19T09:28:24;11.30;;;4.50;;
59310;SDS011;45078;51.654;21.250;2023-05-19T09:33:37;11.38;;;4.47;;
59310;SDS011;45078;51.654;21.250;2023-05-19T09:36:04;13.20;;;4.28;;
59310;SDS011;45078;51.654;21.250;2023-05-19T09:38:32;11.95;;;4.88;;
59310;SDS011;45078;51.654;21.250;2023-05-19T09:40:59;12.25;;;5.30;;
59310;SDS011;45078;51.654;21.250;2023-05-19T09:43:29;8.90;;;4.13;;
59310;SDS011;45078;51.654;21.250;2023-05-19T09:46:02;11.27;;;4.75;;
59310;SDS011;45078;51.654;21.250;2023-05-19T09:48:29;12.63;;;4.97;;
59310;SDS011;45078;51.654;21.250;2023-05-19T09:50:55;13.88;;;5.05;;
59310;SDS011;45078;51.654;21.250;2023-05-19T09:53:22;14.55;;;5.05;;
59310;SDS011;45078;51.654;21.250;2023-05-19T09:55:49;15.30;;;5.07;;
59310;SDS011;45078;51.654;21.250;2023-05-19T09:58:19;11.05;;;4.60;;
59310;SDS011;45078;51.654;21.250;2023-05-19T10:00:45;9.70;;;4.68;;
59310;SDS011;45078;51.654;21.250;2023-05-19T10:03:12;9.75;;;5.03;;
59310;SDS011;45078;51.654;21.250;2023-05-19T10:05:38;10.35;;;5.00;;
59310;SDS011;45078;51.654;21.250;2023-05-19T10:08:06;9.50;;;5.53;;
59310;SDS011;45078;51.654;21.250;2023-05-19T10:10:34;10.60;;;4.82;;
59310;SDS011;45078;51.654;21.250;2023-05-19T10:13:02;13.38;;;4.47;;
59310;SDS011;45078;51.654;21.250;2023-05-19T10:15:29;9.82;;;4.45;;
59310;SDS011;45078;51.654;21.250;2023-05-19T10:17:55;10.98;;;4.53;;
59310;SDS011;45078;51.654;21.250;2023-05-19T10:20:21;12.10;;;4.38;;
59310;SDS011;45078;51.654;21.250;2023-05-19T10:22:47;8.52;;;4.30;;
59310;SDS011;45078;51.654;21.250;2023-05-19T10:25:13;10.75;;;4.40;;
59310;SDS011;45078;51.654;21.250;2023-05-19T10:27:55;12.95;;;5.47;;
59310;SDS011;45078;51.654;21.250;2023-05-19T10:30:32;10.95;;;5.10;;
59310;SDS011;45078;51.654;21.250;2023-05-19T10:33:00;12.68;;;4.60;;
59310;SDS011;45078;51.654;21.250;2023-05-19T10:46:41;9.80;;;4.30;;
59310;SDS011;45078;51.654;21.250;2023-05-19T10:49:07;12.90;;;4.28;;
59310;SDS011;45078;51.654;21.250;2023-05-19T10:51:33;11.80;;;4.38;;
59310;SDS011;45078;51.654;21.250;2023-05-19T10:54:12;12.95;;;4.65;;
59310;SDS011;45078;51.654;21.250;2023-05-19T10:56:41;11.80;;;4.07;;
59310;SDS011;45078;51.654;21.250;2023-05-19T10:59:28;10.05;;;3.38;;
59310;SDS011;45078;51.654;21.250;2023-05-19T11:01:56;10.65;;;4.25;;
59310;SDS011;45078;51.654;21.250;2023-05-19T11:04:37;10.38;;;4.07;;
59310;SDS011;45078;51.654;21.250;2023-05-19T11:07:20;8.00;;;4.18;;
59310;SDS011;45078;51.654;21.250;2023-05-19T11:09:51;8.10;;;3.88;;
59310;SDS011;45078;51.654;21.250;2023-05-19T11:12:20;9.85;;;4.30;;
59310;SDS011;45078;51.654;21.250;2023-05-19T11:14:47;8.93;;;4.20;;
59310;SDS011;45078;51.654;21.250;2023-05-19T11:17:17;10.40;;;4.07;;
59310;SDS011;45078;51.654;21.250;2023-05-19T11:19:52;10.27;;;3.90;;
59310;SDS011;45078;51.654;21.250;2023-05-19T11:22:23;8.30;;;3.58;;
59310;SDS011;45078;51.654;21.250;2023-05-19T11:24:50;9.20;;;3.67;;
59310;SDS011;45078;51.654;21.250;2023-05-19T11:29:49;8.15;;;3.03;;
59310;SDS011;45078;51.654;21.250;2023-05-19T11:32:21;13.27;;;4.07;;
59310;SDS011;45078;51.654;21.250;2023-05-19T11:34:51;11.60;;;3.53;;
59310;SDS011;45078;51.654;21.250;2023-05-19T11:37:18;10.65;;;4.10;;
59310;SDS011;45078;51.654;21.250;2023-05-19T11:39:45;7.90;;;3.90;;
59310;SDS011;45078;51.654;21.250;2023-05-19T11:42:13;11.05;;;3.42;;
59310;SDS011;45078;51.654;21.250;2023-05-19T11:44:40;10.18;;;3.50;;
59310;SDS011;45078;51.654;21.250;2023-05-19T11:47:09;7.38;;;3.22;;
59310;SDS011;45078;51.654;21.250;2023-05-19T11:49:35;7.65;;;3.20;;
59310;SDS011;45078;51.654;21.250;2023-05-19T11:52:01;6.68;;;3.45;;
59310;SDS011;45078;51.654;21.250;2023-05-19T11:54:28;10.52;;;3.30;;
59310;SDS011;45078;51.654;21.250;2023-05-19T11:56:56;12.32;;;3.42;;
59310;SDS011;45078;51.654;21.250;2023-05-19T11:59:32;8.02;;;3.22;;
59310;SDS011;45078;51.654;21.250;2023-05-19T12:04:44;8.35;;;3.63;;
59310;SDS011;45078;51.654;21.250;2023-05-19T12:07:11;10.05;;;3.67;;
59310;SDS011;45078;51.654;21.250;2023-05-19T12:09:38;11.75;;;3.50;;
59310;SDS011;45078;51.654;21.250;2023-05-19T12:12:04;11.80;;;4.03;;
59310;SDS011;45078;51.654;21.250;2023-05-19T12:14:30;6.07;;;3.38;;
59310;SDS011;45078;51.654;21.250;2023-05-19T12:16:56;7.50;;;3.75;;
59310;SDS011;45078;51.654;21.250;2023-05-19T12:19:22;11.43;;;4.15;;
59310;SDS011;45078;51.654;21.250;2023-05-19T12:21:50;6.80;;;3.17;;
59310;SDS011;45078;51.654;21.250;2023-05-19T12:24:17;5.90;;;3.40;;
59310;SDS011;45078;51.654;21.250;2023-05-19T12:26:43;9.02;;;3.42;;
59310;SDS011;45078;51.654;21.250;2023-05-19T12:29:09;9.30;;;3.58;;
59310;SDS011;45078;51.654;21.250;2023-05-19T12:31:37;7.22;;;3.13;;
59310;SDS011;45078;51.654;21.250;2023-05-19T12:34:03;8.63;;;3.88;;
59310;SDS011;45078;51.654;21.250;2023-05-19T12:36:30;8.18;;;3.60;;
59310;SDS011;45078;51.654;21.250;2023-05-19T12:38:56;9.70;;;3.88;;
59310;SDS011;45078;51.654;21.250;2023-05-19T12:41:25;9.95;;;3.42;;
59310;SDS011;45078;51.654;21.250;2023-05-19T12:43:51;10.13;;;3.38;;
59310;SDS011;45078;51.654;21.250;2023-05-19T12:46:18;9.23;;;3.33;;
59310;SDS011;45078;51.654;21.250;2023-05-19T12:48:45;6.68;;;4.15;;
59310;SDS011;45078;51.654;21.250;2023-05-19T12:51:18;6.63;;;3.38;;
59310;SDS011;45078;51.654;21.250;2023-05-19T12:53:44;9.48;;;3.70;;
59310;SDS011;45078;51.654;21.250;2023-05-19T12:56:14;6.35;;;3.13;;
59310;SDS011;45078;51.654;21.250;2023-05-19T12:58:40;5.75;;;3.42;;
59310;SDS011;45078;51.654;21.250;2023-05-19T13:01:13;6.75;;;3.50;;
59310;SDS011;45078;51.654;21.250;2023-05-19T13:03:40;7.85;;;3.45;;
59310;SDS011;45078;51.654;21.250;2023-05-19T13:06:07;6.15;;;3.20;;
59310;SDS011;45078;51.654;21.250;2023-05-19T13:08:33;10.70;;;3.50;;
59310;SDS011;45078;51.654;21.250;2023-05-19T13:10:59;8.23;;;3.28;;
59310;SDS011;45078;51.654;21.250;2023-05-19T13:13:25;9.57;;;3.75;;
59310;SDS011;45078;51.654;21.250;2023-05-19T13:15:51;7.55;;;3.75;;
59310;SDS011;45078;51.654;21.250;2023-05-19T13:18:17;7.28;;;3.30;;
59310;SDS011;45078;51.654;21.250;2023-05-19T13:20:44;9.10;;;4.05;;
59310;SDS011;45078;51.654;21.250;2023-05-19T13:23:11;10.00;;;3.65;;
59310;SDS011;45078;51.654;21.250;2023-05-19T13:25:37;9.20;;;3.47;;
59310;SDS011;45078;51.654;21.250;2023-05-19T13:28:04;8.88;;;3.70;;
59310;SDS011;45078;51.654;21.250;2023-05-19T13:30:33;5.95;;;3.35;;
59310;SDS011;45078;51.654;21.250;2023-05-19T13:33:01;6.50;;;3.72;;
59310;SDS011;45078;51.654;21.250;2023-05-19T13:35:27;5.30;;;3.65;;
59310;SDS011;45078;51.654;21.250;2023-05-19T13:37:53;8.25;;;3.67;;
59310;SDS011;45078;51.654;21.250;2023-05-19T13:40:19;8.70;;;4.10;;
59310;SDS011;45078;51.654;21.250;2023-05-19T13:42:45;9.38;;;3.63;;
59310;SDS011;45078;51.654;21.250;2023-05-19T13:45:10;6.85;;;3.60;;
59310;SDS011;45078;51.654;21.250;2023-05-19T13:47:36;7.13;;;3.70;;
59310;SDS011;45078;51.654;21.250;2023-05-19T13:50:03;6.70;;;3.78;;
59310;SDS011;45078;51.654;21.250;2023-05-19T13:52:29;8.75;;;4.13;;
59310;SDS011;45078;51.654;21.250;2023-05-19T13:54:55;17.58;;;4.20;;
59310;SDS011;45078;51.654;21.250;2023-05-19T13:57:22;9.52;;;4.05;;
59310;SDS011;45078;51.654;21.250;2023-05-19T13:59:48;7.13;;;3.47;;
59310;SDS011;45078;51.654;21.250;2023-05-19T14:02:14;6.90;;;3.50;;
59310;SDS011;45078;51.654;21.250;2023-05-19T14:04:40;8.27;;;3.95;;
59310;SDS011;45078;51.654;21.250;2023-05-19T14:07:06;10.98;;;4.40;;
59310;SDS011;45078;51.654;21.250;2023-05-19T14:09:32;9.10;;;4.38;;
59310;SDS011;45078;51.654;21.250;2023-05-19T14:11:58;8.13;;;3.60;;
59310;SDS011;45078;51.654;21.250;2023-05-19T14:14:23;10.60;;;3.92;;
59310;SDS011;45078;51.654;21.250;2023-05-19T14:16:49;6.57;;;3.38;;
59310;SDS011;45078;51.654;21.250;2023-05-19T14:19:15;10.02;;;3.95;;
59310;SDS011;45078;51.654;21.250;2023-05-19T14:21:41;8.43;;;4.18;;
59310;SDS011;45078;51.654;21.250;2023-05-19T14:24:07;7.32;;;3.88;;
59310;SDS011;45078;51.654;21.250;2023-05-19T14:26:33;8.98;;;4.32;;
59310;SDS011;45078;51.654;21.250;2023-05-19T14:28:58;19.15;;;4.30;;
59310;SDS011;45078;51.654;21.250;2023-05-19T14:31:24;11.02;;;4.30;;
59310;SDS011;45078;51.654;21.250;2023-05-19T14:33:50;8.25;;;4.00;;
59310;SDS011;45078;51.654;21.250;2023-05-19T14:36:16;8.05;;;3.47;;
59310;SDS011;45078;51.654;21.250;2023-05-19T14:38:42;8.95;;;3.88;;
59310;SDS011;45078;51.654;21.250;2023-05-19T14:41:08;7.43;;;4.15;;
59310;SDS011;45078;51.654;21.250;2023-05-19T14:43:34;9.45;;;4.25;;
59310;SDS011;45078;51.654;21.250;2023-05-19T14:46:00;8.30;;;4.00;;
59310;SDS011;45078;51.654;21.250;2023-05-19T14:48:25;7.50;;;4.22;;
59310;SDS011;45078;51.654;21.250;2023-05-19T14:50:51;6.10;;;3.50;;
59310;SDS011;45078;51.654;21.250;2023-05-19T14:53:17;9.48;;;4.38;;
59310;SDS011;45078;51.654;21.250;2023-05-19T14:55:43;7.65;;;3.90;;
59310;SDS011;45078;51.654;21.250;2023-05-19T14:58:11;7.93;;;4.13;;
59310;SDS011;45078;51.654;21.250;2023-05-19T15:00:38;9.55;;;3.70;;
59310;SDS011;45078;51.654;21.250;2023-05-19T15:03:05;9.13;;;4.20;;
59310;SDS011;45078;51.654;21.250;2023-05-19T15:05:30;9.15;;;4.40;;
59310;SDS011;45078;51.654;21.250;2023-05-19T15:07:56;7.88;;;4.03;;
59310;SDS011;45078;51.654;21.250;2023-05-19T15:10:22;9.27;;;4.03;;
59310;SDS011;45078;51.654;21.250;2023-05-19T15:12:49;11.85;;;4.40;;
59310;SDS011;45078;51.654;21.250;2023-05-19T15:15:15;11.82;;;4.10;;
59310;SDS011;45078;51.654;21.250;2023-05-19T15:17:41;6.68;;;3.38;;